createdAt,value
2022-10-30T00:05:30.657Z,15.40
2022-10-30T00:13:38.852Z,15.60
2022-10-30T00:21:44.147Z,15.50
2022-10-30T00:29:52.149Z,15.50
2022-10-30T00:37:57.676Z,15.70
2022-10-30T00:46:10.551Z,15.60
2022-10-30T00:54:18.535Z,15.70
2022-10-30T01:02:26.789Z,15.70
2022-10-30T01:10:32.231Z,15.70
2022-10-30T01:18:49.825Z,15.70
2022-10-30T01:27:07.941Z,15.60
2022-10-30T01:35:22.082Z,15.40
2022-10-30T01:43:27.655Z,15.10
2022-10-30T01:51:48.098Z,14.60
2022-10-30T01:59:57.304Z,14.40
2022-10-30T02:08:05.464Z,14.50
2022-10-30T02:16:13.717Z,14.60
2022-10-30T02:24:23.908Z,14.60
2022-10-30T02:32:29.301Z,14.80
2022-10-30T02:40:37.255Z,14.90
2022-10-30T02:48:42.572Z,15.10
2022-10-30T02:56:50.588Z,15.20
2022-10-30T03:04:55.939Z,15.20
2022-10-30T03:13:04.646Z,15.20
2022-10-30T03:21:14.251Z,15.00
2022-10-30T03:29:22.156Z,14.80
2022-10-30T03:37:28.027Z,14.20
2022-10-30T03:45:36.787Z,13.50
2022-10-30T03:53:44.042Z,13.70
2022-10-30T04:01:52.146Z,13.60
2022-10-30T04:09:57.732Z,13.50
2022-10-30T04:18:06.556Z,13.70
2022-10-30T04:26:15.259Z,13.70
2022-10-30T04:34:26.493Z,13.80
2022-10-30T04:42:37.057Z,13.70
2022-10-30T04:50:45.787Z,13.90
2022-10-30T04:58:57.914Z,14.10
2022-10-30T05:07:07.224Z,14.20
2022-10-30T05:15:13.112Z,14.20
2022-10-30T05:23:21.571Z,14.10
2022-10-30T05:31:26.969Z,14.30
2022-10-30T05:39:53.771Z,14.20
2022-10-30T05:48:06.034Z,14.30
2022-10-30T05:56:21.365Z,14.50
2022-10-30T06:04:27.839Z,14.50
2022-10-30T06:12:36.583Z,14.90
2022-10-30T06:21:02.112Z,15.40
2022-10-30T06:29:39.356Z,15.60
2022-10-30T06:37:49.379Z,16.20
2022-10-30T06:45:57.745Z,16.70
2022-10-30T06:54:03.423Z,16.60
2022-10-30T07:02:20.412Z,17.30
2022-10-30T07:10:30.678Z,17.70
2022-10-30T07:18:59.372Z,18.10
2022-10-30T07:27:07.457Z,18.50
2022-10-30T07:35:18.743Z,19.30
2022-10-30T07:43:50.460Z,19.30
2022-10-30T07:52:24.309Z,19.20
2022-10-30T08:00:30.947Z,19.20
2022-10-30T08:08:47.984Z,18.90
2022-10-30T08:17:05.311Z,18.60
2022-10-30T08:25:13.639Z,18.40
2022-10-30T08:33:20.375Z,18.30
2022-10-30T08:41:37.051Z,18.90
2022-10-30T08:49:43.214Z,20.30
2022-10-30T08:57:52.007Z,26.50
2022-10-30T09:05:57.767Z,32.90
2022-10-30T09:14:24.240Z,36.20
2022-10-30T09:22:29.575Z,37.90
2022-10-30T09:30:37.504Z,40.70
2022-10-30T09:38:43.843Z,42.80
2022-10-30T09:47:03.511Z,44.90
2022-10-30T09:55:21.557Z,46.90
2022-10-30T10:03:44.785Z,47.40
2022-10-30T10:12:12.688Z,47.90
2022-10-30T10:20:30.827Z,43.80
2022-10-30T10:28:52.516Z,36.50
2022-10-30T10:37:13.316Z,30.90
2022-10-30T10:45:32.893Z,28.60
2022-10-30T10:53:47.473Z,26.80
2022-10-30T11:01:59.231Z,25.80
2022-10-30T11:10:16.278Z,24.90
2022-10-30T11:18:21.949Z,24.60
2022-10-30T11:26:36.080Z,24.30
2022-10-30T11:34:41.597Z,24.40
2022-10-30T11:42:52.580Z,24.40
2022-10-30T11:51:01.867Z,24.50
2022-10-30T11:59:09.949Z,23.70
2022-10-30T12:07:27.345Z,23.60
2022-10-30T12:15:38.899Z,24.10
2022-10-30T12:23:44.359Z,24.80
2022-10-30T12:31:57.631Z,25.00
2022-10-30T12:40:07.159Z,23.80
2022-10-30T12:48:23.598Z,24.00
2022-10-30T12:56:33.273Z,23.90
2022-10-30T13:04:45.166Z,23.90
2022-10-30T13:12:54.773Z,24.20
2022-10-30T13:21:10.767Z,24.30
2022-10-30T13:29:23.878Z,24.10
2022-10-30T13:37:36.519Z,24.20
2022-10-30T13:45:58.169Z,24.50
2022-10-30T13:54:13.296Z,24.40
2022-10-30T14:02:31.966Z,24.50
2022-10-30T14:10:59.369Z,24.00
2022-10-30T14:19:07.329Z,23.80
2022-10-30T14:27:24.188Z,23.40
2022-10-30T14:35:51.279Z,23.20
2022-10-30T14:44:09.307Z,23.10
2022-10-30T14:52:25.842Z,22.90
2022-10-30T15:00:47.381Z,22.80
2022-10-30T15:09:05.944Z,22.80
2022-10-30T15:17:25.643Z,22.80
2022-10-30T15:25:36.751Z,22.70
2022-10-30T15:33:44.729Z,22.50
2022-10-30T15:41:53.936Z,22.40
2022-10-30T15:50:02.998Z,22.30
2022-10-30T15:58:08.666Z,22.10
2022-10-30T16:06:23.448Z,22.00
2022-10-30T16:14:30.721Z,21.90
2022-10-30T16:22:42.136Z,21.70
2022-10-30T16:30:48.785Z,21.70
2022-10-30T16:38:58.649Z,21.70
2022-10-30T16:47:08.792Z,21.70
2022-10-30T16:55:23.516Z,21.70
2022-10-30T17:03:30.781Z,21.60
2022-10-30T17:11:43.801Z,21.50
2022-10-30T17:19:51.428Z,21.30
2022-10-30T17:27:59.625Z,21.30
2022-10-30T17:36:05.257Z,21.00
2022-10-30T17:44:21.557Z,20.70
2022-10-30T17:52:28.222Z,20.50
2022-10-30T18:00:36.102Z,20.40
2022-10-30T18:08:43.913Z,20.00
2022-10-30T18:16:55.621Z,19.80
2022-10-30T18:25:01.195Z,19.80
2022-10-30T18:33:09.054Z,19.70
2022-10-30T18:41:18.429Z,19.70
2022-10-30T18:49:29.016Z,19.70
2022-10-30T18:57:34.327Z,19.80
2022-10-30T19:05:45.592Z,19.70
2022-10-30T19:13:51.204Z,19.60
2022-10-30T19:21:59.144Z,19.50
2022-10-30T19:30:04.432Z,19.40
2022-10-30T19:38:13.492Z,19.50
2022-10-30T19:46:18.826Z,19.30
2022-10-30T19:54:26.716Z,19.30
2022-10-30T20:02:32.022Z,19.30
2022-10-30T20:10:43.888Z,19.30
2022-10-30T20:18:50.388Z,19.40
2022-10-30T20:26:59.507Z,19.30
2022-10-30T20:35:08.760Z,19.30
2022-10-30T20:43:21.388Z,19.10
2022-10-30T20:51:26.740Z,19.00
2022-10-30T20:59:34.583Z,18.70
2022-10-30T21:07:39.934Z,18.50
2022-10-30T21:15:47.881Z,18.40
2022-10-30T21:23:58.450Z,18.30
2022-10-30T21:32:09.474Z,18.40
2022-10-30T21:40:16.165Z,18.30
2022-10-30T21:48:24.005Z,18.10
2022-10-30T21:56:31.441Z,18.20
2022-10-30T22:04:40.273Z,18.20
2022-10-30T22:12:45.572Z,18.20
2022-10-30T22:20:53.538Z,18.10
2022-10-30T22:29:01.178Z,18.10
2022-10-30T22:37:09.086Z,18.00
2022-10-30T22:45:36.897Z,17.90
2022-10-30T22:53:46.007Z,17.30
2022-10-30T23:11:00.309Z,17.60
2022-10-30T23:19:05.802Z,17.60
2022-10-30T23:27:13.642Z,17.60
2022-10-30T23:35:18.946Z,17.50
2022-10-30T23:43:26.936Z,17.50
2022-10-30T23:51:32.663Z,17.40
2022-10-30T23:59:40.528Z,17.40
